Latest Weather Observations for Noonamah

IDD60901

Issued at 6:31 pm CST Tuesday 26 January 2021 (issued every 10 minutes, with the page automatically refreshed every 10 minutes)

About weather observations | Map of Darwin area stations | Latest observations for Darwin area | Other Formats
Station Details ID: 014314 Name: NOONAMAH AIRSTRIP Lat: -12.61 Lon: 131.05 Height: 17.5 m
Data from the previous 72 hours. | See also: Recent months at Noonamah
Date/Time
CST
Temp
°C
App
Temp
°C
Dew
Point
°C
Rel
Hum
%
Delta-T
°C
Wind Press
QNH
hPa
Press
MSL
hPa
Rain since
9am
mm
Dir  Spd
km/h
Gust
km/h
Spd
kts
Gust
kts
26/06:30pm 25.0 30.1 24.0 94 0.7 WSW 4 7 2 4 1001.3 1001.1 3.8
26/06:00pm 25.4 27.9 23.8 91 1.1 W 17 26 9 14 1001.4 1001.2 1.6
26/05:30pm 26.9 31.5 24.2 85 1.9 W 7 17 4 9 1000.9 1000.7 1.4
26/05:00pm 26.1 31.0 24.3 90 1.2 NW 6 9 3 5 1001.0 1000.8 1.4
26/04:30pm 25.4 29.0 23.8 91 1.1 WNW 11 15 6 8 1001.0 1000.8 1.4
26/04:00pm 29.9 32.1 22.6 65 5.0 WSW 15 22 8 12 1000.5 1000.3 0.6
26/03:30pm 31.0 34.0 23.4 64 5.3 WSW 13 22 7 12 1000.6 1000.4 0.6
26/03:00pm 29.8 32.6 23.0 67 4.7 WSW 13 20 7 11 1001.1 1000.9 0.6
26/02:30pm 29.8 32.1 22.8 66 4.8 SW 15 28 8 15 1001.6 1001.4 0.6
26/02:00pm 29.1 31.3 22.6 68 4.4 SW 15 28 8 15 1002.1 1001.9 0.6
26/01:30pm 28.2 30.7 23.8 77 3.0 WSW 17 26 9 14 1002.5 1002.3 0.4
26/01:00pm 26.2 29.8 25.0 93 0.8 WSW 15 26 8 14 1002.9 1002.7 0.4
26/12:30pm 28.8 32.5 24.6 78 2.9 W 13 24 7 13 1002.7 1002.5 0.0
26/12:00pm 28.4 31.7 23.8 76 3.2 WSW 13 19 7 10 1002.8 1002.6 0.0
26/11:30am 28.3 32.0 23.9 77 3.0 W 11 20 6 11 1003.2 1003.0 0.0
26/11:00am 27.9 31.2 23.9 79 2.8 W 13 20 7 11 1003.4 1003.2 0.0
26/10:30am 28.0 32.4 24.4 81 2.5 WSW 9 15 5 8 1003.4 1003.2 0.0
26/10:00am 27.4 31.2 24.1 82 2.3 W 11 19 6 10 1003.3 1003.1 0.0
26/09:30am 27.2 31.5 24.3 84 2.0 W 9 17 5 9 1003.2 1003.0 0.0
26/09:00am 26.1 30.1 23.8 87 1.6 WSW 9 15 5 8 1003.2 1003.0 48.0
26/08:30am 25.6 29.6 24.4 93 0.8 WSW 11 22 6 12 1003.9 1003.7 48.0
26/08:00am 25.2 31.3 24.5 96 0.5 CALM 0 6 0 3 1003.7 1003.5 48.0
26/07:30am 24.7 30.8 24.4 98 0.2 CALM 0 0 0 0 1003.4 1003.2 48.0
26/07:00am 24.6 30.6 24.3 98 0.2 CALM 0 0 0 0 1003.0 1002.8 48.0
26/06:30am 24.6 30.6 24.3 98 0.2 CALM 0 0 0 0 1003.1 1002.9 48.0
26/06:00am 24.6 30.6 24.3 98 0.2 CALM 0 0 0 0 1003.0 1002.8 48.0
26/05:30am 24.4 30.3 24.1 98 0.2 CALM 0 0 0 0 1002.8 1002.6 47.8
26/05:00am 24.4 30.3 24.1 98 0.2 CALM 0 0 0 0 1002.5 1002.3 47.8
26/04:30am 24.3 30.0 23.8 97 0.3 CALM 0 0 0 0 1002.3 1002.1 47.8
26/04:00am 24.3 30.0 23.8 97 0.3 CALM 0 0 0 0 1002.6 1002.4 47.8
26/03:30am 24.2 29.5 23.7 97 0.3 W 2 6 1 3 1002.7 1002.5 47.8
26/03:00am 24.1 28.6 23.6 97 0.3 WSW 6 7 3 4 1002.3 1002.1 47.8
26/02:30am 24.1 28.4 23.6 97 0.3 WSW 7 13 4 7 1002.2 1002.0 47.8
26/02:00am 24.1 28.6 23.6 97 0.3 W 6 9 3 5 1002.8 1002.6 47.8
26/01:30am 24.1 27.9 23.4 96 0.5 WSW 9 19 5 10 1003.3 1003.1 47.6
26/01:00am 24.4 28.4 23.7 96 0.5 W 9 17 5 9 1004.0 1003.8 47.0
26/12:30am 24.6 27.9 23.9 96 0.5 W 13 28 7 15 1004.6 1004.4 46.2
26/12:00am 24.8 28.9 24.5 98 0.2 W 11 20 6 11 1004.9 1004.7 44.6
 
Date/Time
CST
Temp
°C
App
Temp
°C
Dew
Point
°C
Rel
Hum
%
Delta-T
°C
Wind Press
QNH
hPa
Press
MSL
hPa
Rain since
9am
mm
Dir  Spd
km/h
Gust
km/h
Spd
kts
Gust
kts
25/11:30pm 24.5 29.2 24.0 97 0.3 NNW 6 9 3 5 1005.1 1004.9 40.8
25/11:00pm 24.5 28.9 23.8 96 0.5 NW 7 11 4 6 1005.5 1005.3 37.2
25/10:30pm 24.7 29.5 24.2 97 0.3 WNW 6 9 3 5 1005.8 1005.6 35.4
25/10:00pm 25.0 30.5 24.7 98 0.2 WNW 4 9 2 5 1005.5 1005.3 31.2
25/09:30pm 25.0 30.1 24.7 98 0.2 WNW 6 7 3 4 1005.1 1004.9 29.2
25/09:00pm 24.9 30.2 24.4 97 0.3 NW 4 6 2 3 1004.6 1004.4 27.8
25/08:30pm 24.8 29.5 24.3 97 0.3 WNW 7 15 4 8 1003.8 1003.6 25.6
25/08:00pm 25.4 29.5 24.5 95 0.6 W 11 28 6 15 1003.8 1003.6 11.6
25/07:30pm 25.7 32.2 25.0 96 0.5 CALM 0 4 0 2 1003.3 1003.1 5.8
25/07:00pm 25.9 32.6 25.4 97 0.4 CALM 0 0 0 0 1003.1 1002.9 5.8
25/06:30pm 25.8 32.3 25.1 96 0.5 CALM 0 0 0 0 1002.5 1002.3 5.8
25/06:00pm 25.6 32.0 24.9 96 0.5 CALM 0 2 0 1 1002.3 1002.1 5.8
25/05:30pm 25.5 31.8 24.8 96 0.5 CALM 0 0 0 0 1002.5 1002.3 5.8
25/05:00pm 25.2 30.7 24.7 97 0.3 WNW 4 7 2 4 1002.6 1002.4 5.6
25/04:30pm 24.9 29.2 24.2 96 0.5 N 9 19 5 10 1002.6 1002.4 4.0
25/04:00pm 25.2 29.1 24.3 95 0.6 NNW 11 17 6 9 1002.8 1002.6 3.4
25/03:30pm 25.2 30.0 24.5 96 0.5 N 7 11 4 6 1002.9 1002.7 2.4
25/03:00pm 24.9 29.0 24.0 95 0.6 NNW 9 17 5 9 1003.0 1002.8 2.0
25/02:30pm 25.4 27.4 23.6 90 1.2 NNW 19 28 10 15 1003.4 1003.2 1.0
25/02:00pm 29.3 33.6 24.2 74 3.5 WNW 9 19 5 10 1003.2 1003.0 1.0
25/01:30pm 28.1 32.4 24.3 80 2.6 WNW 9 15 5 8 1003.8 1003.6 1.0
25/01:00pm 27.3 31.3 24.4 84 2.0 W 11 19 6 10 1004.2 1004.0 1.0
25/12:30pm 26.8 31.3 24.6 88 1.5 WNW 9 15 5 8 1004.3 1004.1 1.0
25/12:00pm 27.0 31.6 24.8 88 1.5 W 9 17 5 9 1004.3 1004.1 1.0
25/11:30am 26.4 31.7 25.0 92 1.0 WNW 6 13 3 7 1004.8 1004.6 1.0
25/11:00am 25.6 30.2 24.2 92 1.0 WNW 7 13 4 7 1005.4 1005.2 0.8
25/10:30am 24.9 29.2 23.7 93 0.8 NW 7 11 4 6 1005.9 1005.7 0.8
25/10:00am 24.7 28.5 23.5 93 0.8 NW 9 19 5 10 1006.3 1006.1 0.4
25/09:30am 24.7 29.5 24.2 97 0.3 NNW 6 9 3 5 1006.2 1006.0 0.0
25/09:00am 24.3 29.3 23.8 97 0.3 NNW 4 7 2 4 1006.4 1006.2 48.6
25/08:30am 23.9 28.3 23.4 97 0.3 NW 6 9 3 5 1006.8 1006.6 48.0
25/08:00am 23.8 28.1 23.3 97 0.3 NNW 6 9 3 5 1006.4 1006.2 47.2
25/07:30am 23.6 27.7 22.9 96 0.5 NNW 6 11 3 6 1005.7 1005.5 46.6
25/07:00am 23.8 27.5 23.3 97 0.3 NNW 9 17 5 9 1005.6 1005.4 45.4
25/06:30am 24.0 28.4 23.5 97 0.3 N 6 7 3 4 1005.3 1005.1 44.2
25/06:00am 23.8 28.1 23.3 97 0.3 NNW 6 7 3 4 1005.1 1004.9 43.4
25/05:30am 23.9 29.0 23.4 97 0.3 N 2 6 1 3 1004.6 1004.4 43.2
25/05:00am 24.1 29.3 23.6 97 0.3 N 2 6 1 3 1004.5 1004.3 43.0
25/04:30am 24.1 29.6 23.4 96 0.5 CALM 0 0 0 0 1003.9 1003.7 43.0
25/04:00am 24.2 28.6 23.5 96 0.5 SW 6 11 3 6 1004.5 1004.3 42.4
25/03:30am 24.5 29.2 24.0 97 0.3 SSW 6 9 3 5 1005.0 1004.8 42.4
25/03:00am 24.5 30.3 24.0 97 0.3 CALM 0 4 0 2 1005.1 1004.9 40.4
25/02:30am 24.7 30.7 24.2 97 0.3 CALM 0 0 0 0 1005.2 1005.0 39.2
25/02:00am 24.5 29.6 24.0 97 0.3 N 4 6 2 3 1005.3 1005.1 38.2
25/01:30am 24.4 28.5 23.9 97 0.3 WNW 9 15 5 8 1005.9 1005.7 36.4
25/01:00am 23.9 29.4 23.4 97 0.3 CALM 0 0 0 0 1006.0 1005.8 33.2
25/12:30am 23.7 28.2 23.0 96 0.5 N 4 6 2 3 1006.2 1006.0 32.8
25/12:00am 23.7 27.2 22.9 95 0.5 NW 9 17 5 9 1006.3 1006.1 32.2
 
Date/Time
CST
Temp
°C
App
Temp
°C
Dew
Point
°C
Rel
Hum
%
Delta-T
°C
Wind Press
QNH
hPa
Press
MSL
hPa
Rain since
9am
mm
Dir  Spd
km/h
Gust
km/h
Spd
kts
Gust
kts
24/11:30pm 24.1 28.6 23.6 97 0.3 NNW 6 22 3 12 1007.3 1007.1 28.0
24/11:00pm 24.1 29.7 23.6 97 0.3 CALM 0 0 0 0 1007.1 1006.9 27.8
24/10:30pm 23.9 29.2 23.0 95 0.6 CALM 0 2 0 1 1007.1 1006.9 26.6
24/10:00pm 23.5 27.5 22.7 95 0.5 SSW 6 7 3 4 1006.9 1006.7 26.2
24/09:30pm 23.0 26.4 22.0 94 0.7 W 7 11 4 6 1007.2 1007.0 25.6
24/09:00pm 24.1 24.6 22.7 92 0.9 WNW 24 37 13 20 1007.1 1006.9 11.2
24/08:30pm 27.9 34.4 25.1 85 2.0 CALM 0 0 0 0 1006.1 1005.9 1.8
24/08:00pm 28.3 34.8 25.1 83 2.2 CALM 0 2 0 1 1005.9 1005.7 1.8
24/07:30pm 28.4 33.7 24.4 79 2.8 WNW 4 6 2 3 1005.6 1005.4 1.8
24/07:00pm 28.8 33.5 23.9 75 3.4 WNW 6 9 3 5 1005.2 1005.0 1.8
24/06:30pm 29.2 33.4 24.1 74 3.5 WNW 9 15 5 8 1004.8 1004.6 1.8
24/06:00pm 29.4 33.2 24.0 72 3.8 WNW 11 22 6 12 1004.6 1004.4 1.8
24/05:30pm 29.9 33.5 23.8 70 4.2 WNW 11 20 6 11 1004.2 1004.0 1.8
24/05:00pm 29.8 33.6 24.0 71 4.0 WNW 11 24 6 13 1004.0 1003.8 1.8
24/04:30pm 29.9 32.3 23.6 69 4.4 WNW 17 32 9 17 1004.0 1003.8 1.8
24/04:00pm 30.7 34.4 23.9 67 4.7 WNW 11 20 6 11 1004.0 1003.8 1.8
24/03:30pm 29.4 30.6 22.1 65 4.9 WNW 19 33 10 18 1004.3 1004.1 1.8
24/03:00pm 30.5 33.6 24.2 69 4.4 WNW 15 22 8 12 1004.5 1004.3 1.8
24/02:30pm 30.6 32.4 23.3 65 5.0 WNW 19 32 10 17 1005.2 1005.0 1.8
24/02:00pm 29.8 32.9 24.2 72 3.9 WNW 15 28 8 15 1005.9 1005.7 1.8
24/01:30pm 27.9 35.2 26.3 91 1.1 CALM 0 6 0 3 1006.5 1006.3 1.8
24/01:00pm 26.5 29.0 23.8 85 1.9 W 17 35 9 19 1007.2 1007.0 1.6
24/12:30pm 30.4 32.3 22.8 64 5.2 WNW 17 30 9 16 1007.2 1007.0 0.2
24/12:00pm 29.2 31.6 23.6 72 3.9 WNW 17 26 9 14 1007.6 1007.4 0.2
24/11:30am 30.1 33.9 24.0 70 4.2 W 11 17 6 9 1007.6 1007.4 0.2
24/11:00am 29.7 32.8 23.6 69 4.2 W 13 19 7 10 1008.0 1007.8 0.2
24/10:30am 28.9 32.7 24.0 75 3.4 W 11 17 6 9 1008.3 1008.1 0.0
24/10:00am 27.7 31.8 23.9 80 2.6 WNW 9 15 5 8 1008.5 1008.3 0.0
24/09:30am 25.8 30.2 23.5 87 1.6 W 6 7 3 4 1009.0 1008.8 0.0
24/09:00am 25.1 30.1 23.2 89 1.3 W 2 6 1 3 1009.1 1008.9 2.8
24/08:30am 25.0 29.6 23.2 90 1.2 WSW 4 6 2 3 1008.6 1008.4 2.8
24/08:00am 24.7 29.2 22.9 90 1.2 W 4 7 2 4 1008.0 1007.8 2.8
24/07:30am 24.4 28.9 23.0 92 0.9 W 4 9 2 5 1007.4 1007.2 2.8
24/07:00am 24.4 28.4 22.8 91 1.1 W 6 9 3 5 1007.1 1006.9 2.8
24/06:30am 24.4 27.9 22.8 91 1.1 WSW 9 20 5 11 1007.3 1007.1 2.8
24/06:00am 24.5 28.6 23.3 93 0.8 WSW 7 15 4 8 1007.1 1006.9 2.8
24/05:30am 24.5 29.0 23.6 95 0.6 WSW 6 11 3 6 1007.0 1006.8 2.8
24/05:00am 24.6 29.5 23.7 95 0.6 WSW 4 6 2 3 1006.6 1006.4 2.8
24/04:30am 24.6 30.4 23.9 96 0.5 CALM 0 4 0 2 1006.7 1006.5 2.8
24/04:00am 24.7 30.5 24.0 96 0.5 CALM 0 0 0 0 1007.0 1006.8 2.8
24/03:30am 24.7 30.4 23.8 95 0.6 CALM 0 4 0 2 1006.9 1006.7 2.8
24/03:00am 24.6 29.1 23.6 94 0.7 W 6 11 3 6 1007.4 1007.2 2.8
24/02:30am 24.7 29.5 23.5 93 0.8 WNW 4 6 2 3 1007.6 1007.4 2.8
24/02:00am 24.7 29.5 23.5 93 0.8 W 4 7 2 4 1008.0 1007.8 2.8
24/01:30am 24.8 29.3 23.9 95 0.6 W 7 9 4 5 1008.4 1008.2 2.8
24/01:00am 25.0 31.1 24.5 97 0.3 CALM 0 0 0 0 1008.5 1008.3 2.8
24/12:30am 25.1 31.3 24.6 97 0.3 CALM 0 0 0 0 1008.7 1008.5 2.8
24/12:00am 25.1 31.2 24.4 96 0.5 CALM 0 0 0 0 1008.9 1008.7 2.8
 
Date/Time
CST
Temp
°C
App
Temp
°C
Dew
Point
°C
Rel
Hum
%
Delta-T
°C
Wind Press
QNH
hPa
Press
MSL
hPa
Rain since
9am
mm
Dir  Spd
km/h
Gust
km/h
Spd
kts
Gust
kts
23/11:30pm 25.1 31.3 24.6 97 0.3 CALM 0 0 0 0 1009.3 1009.1 2.8
23/11:00pm 25.0 31.1 24.5 97 0.3 CALM 0 0 0 0 1009.1 1008.9 2.8
23/10:30pm 25.1 31.2 24.4 96 0.5 CALM 0 0 0 0 1008.9 1008.7 2.8
23/10:00pm 24.9 30.9 24.2 96 0.5 CALM 0 0 0 0 1008.7 1008.5 2.6
23/09:30pm 24.9 30.9 24.2 96 0.5 CALM 0 0 0 0 1008.7 1008.5 2.6
23/09:00pm 24.7 30.5 24.0 96 0.5 CALM 0 0 0 0 1008.8 1008.6 2.6
23/08:30pm 24.6 30.4 23.9 96 0.5 CALM 0 0 0 0 1008.5 1008.3 2.4
23/08:00pm 24.4 29.7 23.7 96 0.5 NW 2 6 1 3 1008.0 1007.8 2.2
23/07:30pm 24.3 29.4 23.4 95 0.6 N 2 7 1 4 1007.4 1007.2 2.0
23/07:00pm 24.4 30.0 23.5 95 0.6 CALM 0 2 0 1 1006.9 1006.7 1.8

Latest Capital City Observations: Canberra | Sydney | Melbourne | Brisbane | Adelaide | Perth | Hobart | Darwin

Other formats

Comma delimited format used in spreadsheet applications
http://www.bom.gov.au/fwo/IDD60901/IDD60901.94105.axf

JavaScript Object Notation format (JSON) in row-major order
http://www.bom.gov.au/fwo/IDD60901/IDD60901.94105.json

Data quality

Most of these data are generated automatically and are frequently updated. Quality checks on data are not normally performed. It is possible for incorrect values to appear. Refer to information at About Latest Weather Observations and please check the disclaimer before using these data.